createdAt,value
2023-03-22T00:00:51.026Z,11.43
2023-03-22T00:02:53.920Z,11.47
2023-03-22T00:04:56.836Z,11.45
2023-03-22T00:06:59.639Z,11.44
2023-03-22T00:09:02.456Z,11.43
2023-03-22T00:11:06.860Z,11.48
2023-03-22T00:13:11.017Z,11.41
2023-03-22T00:15:15.406Z,11.42
2023-03-22T00:17:18.395Z,11.43
2023-03-22T00:19:21.210Z,11.45
2023-03-22T00:21:24.206Z,11.47
2023-03-22T00:23:28.688Z,11.48
2023-03-22T00:25:31.997Z,11.48
2023-03-22T00:27:34.817Z,11.49
2023-03-22T00:29:37.875Z,11.47
2023-03-22T00:31:42.190Z,11.52
2023-03-22T00:33:45.292Z,11.52
2023-03-22T00:35:52.384Z,11.51
2023-03-22T00:37:55.272Z,11.57
2023-03-22T00:39:58.814Z,11.51
2023-03-22T00:42:01.808Z,11.48
2023-03-22T00:44:04.676Z,11.48
2023-03-22T00:46:08.224Z,11.52
2023-03-22T00:48:12.936Z,11.54
2023-03-22T00:50:15.911Z,11.57
2023-03-22T00:52:18.860Z,11.56
2023-03-22T00:54:21.628Z,11.58
2023-03-22T00:56:25.552Z,11.51
2023-03-22T00:58:36.760Z,11.53
2023-03-22T01:00:39.836Z,11.50
2023-03-22T01:02:45.298Z,11.50
2023-03-22T01:04:54.467Z,11.49
2023-03-22T01:06:59.314Z,11.44
2023-03-22T01:09:02.791Z,11.44
2023-03-22T01:11:07.177Z,11.43
2023-03-22T01:13:11.765Z,11.42
2023-03-22T01:15:14.681Z,11.42
2023-03-22T01:17:17.559Z,11.40
2023-03-22T01:19:21.010Z,11.44
2023-03-22T01:21:25.215Z,11.41
2023-03-22T01:23:28.667Z,11.41
2023-03-22T01:25:31.843Z,11.41
2023-03-22T01:27:34.630Z,11.44
2023-03-22T01:29:37.537Z,11.48
2023-03-22T01:31:40.478Z,11.46
2023-03-22T01:33:43.375Z,11.44
2023-03-22T01:35:46.307Z,11.48
2023-03-22T01:37:50.597Z,11.51
2023-03-22T01:39:55.070Z,11.51
2023-03-22T01:41:58.160Z,11.49
2023-03-22T01:44:15.829Z,11.51
2023-03-22T01:46:18.801Z,11.47
2023-03-22T01:48:27.026Z,11.45
2023-03-22T01:50:31.328Z,11.41
2023-03-22T01:52:34.371Z,11.41
2023-03-22T01:54:46.037Z,11.33
2023-03-22T01:57:04.180Z,11.30
2023-03-22T01:59:16.355Z,11.31
2023-03-22T02:01:35.983Z,11.29
2023-03-22T02:03:48.796Z,11.30
2023-03-22T02:05:51.950Z,11.36
2023-03-22T02:07:57.345Z,11.35
2023-03-22T02:10:02.748Z,11.30
2023-03-22T02:12:22.933Z,11.21
2023-03-22T02:14:58.273Z,11.18
2023-03-22T02:17:29.968Z,11.14
2023-03-22T02:20:05.644Z,11.17
2023-03-22T02:22:39.335Z,11.21
2023-03-22T02:25:08.895Z,11.23
2023-03-22T02:27:41.758Z,11.25
2023-03-22T02:29:48.180Z,11.24
2023-03-22T02:32:36.801Z,11.27
2023-03-22T02:34:57.505Z,11.23
2023-03-22T02:37:34.402Z,11.22
2023-03-22T02:39:43.772Z,11.26
2023-03-22T02:42:00.923Z,11.25
2023-03-22T02:44:13.782Z,11.25
2023-03-22T02:46:23.645Z,11.23
2023-03-22T02:48:28.941Z,11.24
2023-03-22T02:50:39.512Z,11.28
2023-03-22T02:52:46.867Z,11.27
2023-03-22T02:54:57.028Z,11.30
2023-03-22T02:57:03.900Z,11.26
2023-03-22T02:59:10.027Z,11.27
2023-03-22T03:01:19.868Z,11.28
2023-03-22T03:03:25.614Z,11.27
2023-03-22T03:05:31.924Z,11.26
2023-03-22T03:07:35.706Z,11.29
2023-03-22T03:09:41.272Z,11.33
2023-03-22T03:11:46.481Z,11.31
2023-03-22T03:13:49.653Z,11.30
2023-03-22T03:15:55.181Z,11.33
2023-03-22T03:18:14.125Z,11.38
2023-03-22T03:20:29.940Z,11.39
2023-03-22T03:22:45.122Z,11.40
2023-03-22T03:24:52.547Z,11.29
2023-03-22T03:27:03.648Z,11.30
2023-03-22T03:29:13.024Z,11.26
2023-03-22T03:31:26.325Z,11.27
2023-03-22T03:33:33.917Z,11.29
2023-03-22T03:35:45.347Z,11.28
2023-03-22T03:37:52.618Z,11.27
2023-03-22T03:39:59.888Z,11.29
2023-03-22T03:42:07.633Z,11.28
2023-03-22T03:44:11.543Z,11.27
2023-03-22T03:46:15.153Z,11.26
2023-03-22T03:48:21.420Z,11.23
2023-03-22T03:50:25.577Z,11.20
2023-03-22T03:52:31.496Z,11.16
2023-03-22T03:54:34.591Z,11.15
2023-03-22T03:56:38.275Z,11.14
2023-03-22T03:58:42.500Z,11.18
2023-03-22T04:00:46.954Z,11.17
2023-03-22T04:02:52.753Z,11.17
2023-03-22T04:05:19.331Z,11.18
2023-03-22T04:07:22.105Z,11.16
2023-03-22T04:09:26.941Z,11.17
2023-03-22T04:11:34.392Z,11.07
2023-03-22T04:13:38.824Z,11.02
2023-03-22T04:15:47.747Z,10.97
2023-03-22T04:17:53.631Z,10.96
2023-03-22T04:19:59.094Z,10.96
2023-03-22T04:22:02.271Z,10.93
2023-03-22T04:24:07.869Z,10.98
2023-03-22T04:26:14.616Z,10.90
2023-03-22T04:28:29.029Z,10.86
2023-03-22T04:30:36.187Z,10.84
2023-03-22T04:32:59.161Z,10.78
2023-03-22T04:35:16.592Z,10.74
2023-03-22T04:37:20.016Z,10.71
2023-03-22T04:39:28.514Z,10.64
2023-03-22T04:41:47.387Z,10.60
2023-03-22T04:43:51.066Z,10.64
2023-03-22T04:45:58.095Z,10.59
2023-03-22T04:48:10.437Z,10.50
2023-03-22T04:50:13.598Z,10.47
2023-03-22T04:52:23.843Z,10.44
2023-03-22T04:54:30.069Z,10.43
2023-03-22T04:56:32.946Z,10.42
2023-03-22T04:58:37.135Z,10.43
2023-03-22T05:00:42.316Z,10.40
2023-03-22T05:02:46.200Z,10.36
2023-03-22T05:05:00.751Z,10.33
2023-03-22T05:07:10.949Z,10.29
2023-03-22T05:09:28.196Z,10.24
2023-03-22T05:11:31.607Z,10.21
2023-03-22T05:13:54.948Z,10.20
2023-03-22T05:15:59.412Z,10.21
2023-03-22T05:18:14.326Z,10.19
2023-03-22T05:20:18.751Z,10.16
2023-03-22T05:22:27.643Z,10.13
2023-03-22T05:24:33.435Z,10.09
2023-03-22T05:26:38.050Z,10.07
2023-03-22T05:28:40.852Z,10.08
2023-03-22T05:30:51.457Z,10.05
2023-03-22T05:33:05.605Z,10.00
2023-03-22T05:35:14.041Z,9.99
2023-03-22T05:37:22.919Z,9.95
2023-03-22T05:39:29.484Z,9.95
2023-03-22T05:41:35.888Z,9.97
2023-03-22T05:43:39.681Z,10.03
2023-03-22T05:45:43.081Z,9.99
2023-03-22T05:47:59.329Z,9.97
2023-03-22T05:50:03.682Z,9.91
2023-03-22T05:52:07.935Z,9.88
2023-03-22T05:54:24.786Z,9.90
2023-03-22T05:56:28.742Z,10.19
2023-03-22T05:58:41.040Z,10.53
2023-03-22T06:00:45.229Z,10.77
2023-03-22T06:03:08.822Z,10.81
2023-03-22T06:05:18.288Z,10.69
2023-03-22T06:07:21.398Z,10.46
2023-03-22T06:09:30.587Z,10.34
2023-03-22T06:11:35.204Z,10.17
2023-03-22T06:13:41.185Z,10.13
2023-03-22T06:15:47.736Z,10.16
2023-03-22T06:17:56.607Z,10.14
2023-03-22T06:20:08.790Z,10.11
2023-03-22T06:22:11.777Z,10.10
2023-03-22T06:24:14.660Z,10.10
2023-03-22T06:26:18.803Z,10.09
2023-03-22T06:28:21.685Z,10.12
2023-03-22T06:30:27.167Z,10.14
2023-03-22T06:32:43.693Z,10.18
2023-03-22T06:34:46.714Z,10.24
2023-03-22T06:36:49.750Z,10.29
2023-03-22T06:39:13.609Z,10.25
2023-03-22T06:41:21.032Z,10.28
2023-03-22T06:43:24.176Z,10.36
2023-03-22T06:45:33.525Z,10.39
2023-03-22T06:47:37.682Z,10.28
2023-03-22T06:49:40.649Z,10.28
2023-03-22T06:51:44.844Z,10.39
2023-03-22T06:53:48.287Z,10.41
2023-03-22T06:55:53.737Z,10.46
2023-03-22T06:58:01.094Z,10.53
2023-03-22T07:00:05.326Z,10.54
2023-03-22T07:02:08.179Z,10.58
2023-03-22T07:04:11.023Z,10.69
2023-03-22T07:06:15.027Z,10.79
2023-03-22T07:08:21.718Z,10.78
2023-03-22T07:10:26.468Z,10.80
2023-03-22T07:12:37.300Z,10.88
2023-03-22T07:14:48.552Z,10.93
2023-03-22T07:17:01.753Z,10.95
2023-03-22T07:19:05.944Z,11.06
2023-03-22T07:21:08.931Z,11.08
2023-03-22T07:23:15.341Z,11.12
2023-03-22T07:25:24.595Z,11.17
2023-03-22T07:27:36.360Z,11.15
2023-03-22T07:29:39.850Z,11.26
2023-03-22T07:31:45.761Z,11.37
2023-03-22T07:34:01.115Z,11.35
2023-03-22T07:36:09.092Z,11.42
2023-03-22T07:38:11.936Z,11.43
2023-03-22T07:40:15.322Z,11.47
2023-03-22T07:42:18.316Z,11.56
2023-03-22T07:44:44.273Z,11.62
2023-03-22T07:46:48.706Z,11.68
2023-03-22T07:48:56.154Z,11.73
2023-03-22T07:51:19.136Z,11.76
2023-03-22T07:53:22.184Z,11.84
2023-03-22T07:55:26.256Z,11.78
2023-03-22T07:57:29.229Z,11.87
2023-03-22T07:59:36.328Z,11.99
2023-03-22T08:01:40.309Z,12.03
2023-03-22T08:03:55.217Z,12.15
2023-03-22T08:06:27.324Z,12.32
2023-03-22T08:08:30.291Z,12.49
2023-03-22T08:10:33.877Z,12.57
2023-03-22T08:12:37.029Z,12.62
2023-03-22T08:14:57.780Z,12.62
2023-03-22T08:17:02.584Z,12.66
2023-03-22T08:19:07.533Z,12.65
2023-03-22T08:21:12.884Z,12.70
2023-03-22T08:23:16.318Z,12.75
2023-03-22T08:25:23.528Z,12.77
2023-03-22T08:27:28.402Z,12.77
2023-03-22T08:29:33.939Z,12.84
2023-03-22T08:31:38.163Z,13.01
2023-03-22T08:33:41.164Z,13.16
2023-03-22T08:35:46.285Z,13.33
2023-03-22T08:37:49.454Z,13.48
2023-03-22T08:39:52.413Z,13.59
2023-03-22T08:42:07.139Z,13.82
2023-03-22T08:44:11.922Z,13.84
2023-03-22T08:46:15.832Z,13.91
2023-03-22T08:48:20.864Z,14.00
2023-03-22T08:50:48.341Z,14.11
2023-03-22T08:53:00.580Z,14.04
2023-03-22T08:55:09.251Z,13.96
2023-03-22T08:57:51.721Z,14.07
2023-03-22T09:00:16.246Z,14.08
2023-03-22T09:02:42.484Z,14.02
2023-03-22T09:04:45.524Z,14.08
2023-03-22T09:06:49.730Z,14.18
2023-03-22T09:08:52.960Z,14.24
2023-03-22T09:10:58.976Z,14.23
2023-03-22T09:13:02.013Z,14.29
2023-03-22T09:15:06.200Z,14.42
2023-03-22T09:17:09.916Z,14.48
2023-03-22T09:19:12.800Z,14.70
2023-03-22T09:21:16.636Z,14.92
2023-03-22T09:23:42.478Z,14.99
2023-03-22T09:25:48.404Z,15.11
2023-03-22T09:27:55.092Z,15.29
2023-03-22T09:29:58.070Z,15.18
2023-03-22T09:32:00.832Z,15.16
2023-03-22T09:34:07.777Z,15.21
2023-03-22T09:36:12.701Z,15.24
2023-03-22T09:38:16.369Z,15.13
2023-03-22T09:40:27.894Z,15.21
2023-03-22T09:42:37.666Z,15.09
2023-03-22T09:44:44.368Z,15.27
2023-03-22T09:46:56.167Z,15.34
2023-03-22T09:49:02.894Z,15.49
2023-03-22T09:51:08.573Z,15.44
2023-03-22T09:53:14.871Z,15.41
2023-03-22T09:55:31.445Z,15.34
2023-03-22T09:57:37.512Z,15.07
2023-03-22T09:59:45.409Z,14.93
2023-03-22T10:01:54.252Z,14.86
2023-03-22T10:04:10.962Z,14.81
2023-03-22T10:06:18.782Z,14.77
2023-03-22T10:08:42.063Z,14.87
2023-03-22T10:10:46.707Z,15.03
2023-03-22T10:12:52.993Z,15.09
2023-03-22T10:15:04.274Z,15.25
2023-03-22T10:17:12.521Z,15.34
2023-03-22T10:19:21.692Z,15.53
2023-03-22T10:21:24.906Z,15.74
2023-03-22T10:23:33.798Z,15.80
2023-03-22T10:25:38.814Z,15.95
2023-03-22T10:27:43.936Z,16.27
2023-03-22T10:29:52.246Z,16.29
2023-03-22T10:31:55.957Z,16.20
2023-03-22T10:34:02.048Z,16.48
2023-03-22T10:36:07.164Z,16.77
2023-03-22T10:38:20.600Z,16.85
2023-03-22T10:40:27.248Z,16.97
2023-03-22T10:42:32.158Z,17.19
2023-03-22T10:44:45.883Z,17.41
2023-03-22T10:46:51.011Z,17.56
2023-03-22T10:48:58.865Z,17.61
2023-03-22T10:51:02.364Z,17.44
2023-03-22T10:53:08.011Z,17.43
2023-03-22T10:55:14.043Z,17.50
2023-03-22T10:57:17.317Z,17.47
2023-03-22T10:59:47.277Z,17.38
2023-03-22T11:01:52.593Z,17.26
2023-03-22T11:03:58.709Z,17.45
2023-03-22T11:06:03.371Z,17.57
2023-03-22T11:08:06.659Z,17.48
2023-03-22T11:10:28.921Z,17.36
2023-03-22T11:12:31.878Z,17.31
2023-03-22T11:14:37.000Z,17.34
2023-03-22T11:16:48.440Z,17.51
2023-03-22T11:18:51.798Z,17.94
2023-03-22T11:20:59.511Z,18.03
2023-03-22T11:23:05.222Z,17.94
2023-03-22T11:25:14.769Z,18.05
2023-03-22T11:27:21.473Z,18.04
2023-03-22T11:29:24.348Z,18.06
2023-03-22T11:31:27.701Z,18.04
2023-03-22T11:33:32.947Z,18.00
2023-03-22T11:35:38.180Z,18.08
2023-03-22T11:37:42.674Z,18.25
2023-03-22T11:39:49.180Z,18.39
2023-03-22T11:41:53.600Z,18.54
2023-03-22T11:43:57.676Z,18.57
2023-03-22T11:46:01.502Z,18.71
2023-03-22T11:48:08.007Z,18.62
2023-03-22T11:50:26.845Z,18.57
2023-03-22T11:52:30.531Z,18.63
2023-03-22T11:54:38.106Z,18.60
2023-03-22T11:56:43.376Z,18.83
2023-03-22T11:59:06.511Z,18.87
2023-03-22T12:01:15.386Z,18.75
2023-03-22T12:03:23.760Z,18.39
2023-03-22T12:05:31.034Z,18.20
2023-03-22T12:07:36.407Z,18.40
2023-03-22T12:09:42.852Z,18.61
2023-03-22T12:11:50.022Z,18.63
2023-03-22T12:13:58.502Z,18.65
2023-03-22T12:16:03.897Z,18.60
2023-03-22T12:18:12.844Z,18.65
2023-03-22T12:20:22.858Z,18.56
2023-03-22T12:22:32.801Z,18.59
2023-03-22T12:24:35.718Z,18.80
2023-03-22T12:26:39.397Z,18.76
2023-03-22T12:28:48.409Z,18.88
2023-03-22T12:30:56.099Z,18.96
2023-03-22T12:33:03.661Z,18.81
2023-03-22T12:35:17.582Z,18.86
2023-03-22T12:37:42.382Z,18.97
2023-03-22T12:39:51.852Z,18.91
2023-03-22T12:41:58.362Z,18.89
2023-03-22T12:46:50.832Z,18.83
2023-03-22T12:48:59.579Z,18.83
2023-03-22T12:51:06.883Z,18.96
2023-03-22T12:53:15.898Z,18.97
2023-03-22T12:55:23.742Z,18.95
2023-03-22T12:57:27.376Z,18.90
2023-03-22T12:59:32.504Z,18.64
2023-03-22T13:01:40.824Z,18.45
2023-03-22T13:03:47.971Z,18.39
2023-03-22T13:06:00.373Z,18.51
2023-03-22T13:08:05.885Z,18.29
2023-03-22T13:10:42.340Z,18.19
2023-03-22T13:13:12.974Z,18.18
2023-03-22T13:15:41.321Z,18.20
2023-03-22T13:17:46.854Z,18.21
2023-03-22T13:19:53.492Z,18.27
2023-03-22T13:22:15.288Z,18.24
2023-03-22T13:24:23.832Z,18.20
2023-03-22T13:26:33.200Z,18.12
2023-03-22T13:28:38.214Z,18.22
2023-03-22T13:30:50.251Z,18.41
2023-03-22T13:32:56.528Z,18.52
2023-03-22T13:35:00.661Z,18.45
2023-03-22T13:37:05.232Z,18.41
2023-03-22T13:39:12.289Z,18.38
2023-03-22T13:41:22.556Z,18.35
2023-03-22T13:43:34.565Z,18.32
2023-03-22T13:45:59.677Z,18.27
2023-03-22T13:48:07.676Z,18.27
2023-03-22T13:50:16.007Z,18.23
2023-03-22T13:52:28.695Z,18.33
2023-03-22T13:54:38.749Z,18.26
2023-03-22T13:56:53.266Z,18.29
2023-03-22T13:58:58.594Z,18.27
2023-03-22T14:01:04.684Z,18.32
2023-03-22T14:03:15.475Z,18.32
2023-03-22T14:05:22.251Z,18.34
2023-03-22T14:07:30.764Z,18.31
2023-03-22T14:09:36.686Z,18.42
2023-03-22T14:11:45.560Z,18.44
2023-03-22T14:13:52.208Z,18.44
2023-03-22T14:15:57.545Z,18.53
2023-03-22T14:18:07.886Z,18.64
2023-03-22T14:20:16.101Z,18.63
